Time;durP1;ratioP1;P1;durP2;ratioP2;P2;SDS_P1;SDS_P2;PMS_P1;PMS_P2;Temp;Humidity;BMP_temperature;BMP_pressure;BME280_temperature;BME280_humidity;BME280_pressure;Samples;Min_cycle;Max_cycle;Signal;HPM_P1;HPM_P2
2023/11/01 00:01:54;;;;;;;0.30;0.30;;;9.00;99.90;;;;;;4991502;28;20172;-64
2023/11/01 00:04:20;;;;;;;0.53;0.53;;;8.90;99.90;;;;;;4993172;28;20187;-64
2023/11/01 00:06:46;;;;;;;0.60;0.60;;;8.90;99.90;;;;;;4995237;28;20172;-64
2023/11/01 00:09:12;;;;;;;0.85;0.82;;;8.80;99.90;;;;;;4995092;28;20545;-64
2023/11/01 00:11:38;;;;;;;0.70;0.57;;;8.70;99.90;;;;;;4995136;28;20172;-63
2023/11/01 00:14:03;;;;;;;0.50;0.50;;;8.70;99.90;;;;;;4995088;28;20223;-63
2023/11/01 00:16:29;;;;;;;1.83;0.60;;;8.60;99.90;;;;;;4976959;28;20201;-64
2023/11/01 00:18:55;;;;;;;0.60;0.60;;;8.60;99.90;;;;;;4975720;28;20169;-64
2023/11/01 00:21:20;;;;;;;1.17;0.50;;;8.70;99.90;;;;;;4975538;28;20173;-64
2023/11/01 00:23:47;;;;;;;1.70;0.83;;;8.70;99.90;;;;;;4975650;28;20208;-64
2023/11/01 00:26:12;;;;;;;0.85;0.85;;;8.70;99.90;;;;;;4975340;28;20428;-63
2023/11/01 00:28:38;;;;;;;0.60;0.40;;;8.60;99.90;;;;;;4975255;28;20180;-64
2023/11/01 00:31:04;;;;;;;0.30;0.30;;;8.50;99.90;;;;;;4975516;28;20191;-64
2023/11/01 00:33:29;;;;;;;0.77;0.53;;;8.40;99.90;;;;;;4975463;28;20207;-64
2023/11/01 00:35:55;;;;;;;0.40;0.40;;;8.30;99.90;;;;;;4975076;28;20466;-64
2023/11/01 00:38:21;;;;;;;1.80;0.70;;;8.20;99.90;;;;;;4975071;28;20244;-64
2023/11/01 00:40:47;;;;;;;0.50;0.50;;;8.10;99.90;;;;;;4975174;28;20176;-64
2023/11/01 00:43:12;;;;;;;0.80;0.70;;;7.90;99.90;;;;;;4975182;28;20282;-64
2023/11/01 00:45:38;;;;;;;0.30;0.30;;;7.80;99.90;;;;;;4975081;28;20427;-64
2023/11/01 00:48:05;;;;;;;0.40;0.40;;;7.60;99.90;;;;;;4974813;28;20427;-64
2023/11/01 00:50:30;;;;;;;0.30;0.30;;;7.60;99.90;;;;;;4975322;28;20194;-64
2023/11/01 00:52:56;;;;;;;0.40;0.40;;;7.80;99.90;;;;;;4975035;28;20200;-64
2023/11/01 00:55:22;;;;;;;0.53;0.40;;;7.80;99.90;;;;;;4974800;28;20176;-64
2023/11/01 00:57:48;;;;;;;0.43;0.43;;;7.90;99.90;;;;;;4974682;28;20303;-64
2023/11/01 01:00:14;;;;;;;0.30;0.30;;;7.90;99.90;;;;;;4974809;28;20176;-63
2023/11/01 01:02:40;;;;;;;0.50;0.50;;;7.90;99.90;;;;;;4974688;28;20230;-63
2023/11/01 01:05:06;;;;;;;0.30;0.30;;;7.90;99.90;;;;;;4974581;28;20259;-64
2023/11/01 01:07:32;;;;;;;2.05;0.60;;;7.90;99.90;;;;;;4974616;28;20186;-64
2023/11/01 01:09:58;;;;;;;0.40;0.40;;;7.90;99.90;;;;;;4974427;28;20184;-64
2023/11/01 01:12:23;;;;;;;1.47;1.47;;;7.90;99.90;;;;;;4974550;28;20282;-63
2023/11/01 01:14:49;;;;;;;0.53;0.53;;;7.90;99.90;;;;;;4974214;28;20199;-64
2023/11/01 01:17:15;;;;;;;0.30;0.30;;;7.80;99.90;;;;;;4974425;28;20207;-64
2023/11/01 01:19:40;;;;;;;0.80;0.80;;;7.80;99.90;;;;;;4974568;28;20240;-63
2023/11/01 01:22:06;;;;;;;0.40;0.40;;;7.90;99.90;;;;;;4974589;28;20202;-63
2023/11/01 01:24:31;;;;;;;0.40;0.40;;;7.90;99.90;;;;;;4974421;28;20200;-64
2023/11/01 01:26:57;;;;;;;6.33;0.70;;;8.10;99.90;;;;;;4974300;28;20173;-64
2023/11/01 01:29:23;;;;;;;0.70;0.50;;;8.10;99.90;;;;;;4974161;28;20208;-64
2023/11/01 01:31:50;;;;;;;0.40;0.40;;;8.20;99.90;;;;;;4974265;28;20211;-64
2023/11/01 01:34:15;;;;;;;0.68;0.50;;;8.20;99.90;;;;;;4974158;28;20184;-64
2023/11/01 01:36:41;;;;;;;7.73;1.27;;;8.20;99.90;;;;;;4973989;28;20310;-64
2023/11/01 01:39:06;;;;;;;0.40;0.40;;;8.20;99.90;;;;;;4973933;28;20188;-63
2023/11/01 01:41:32;;;;;;;0.73;0.57;;;8.20;99.90;;;;;;4974107;28;20696;-64
2023/11/01 01:43:58;;;;;;;0.60;0.60;;;8.20;99.90;;;;;;4974000;28;20185;-64
2023/11/01 01:46:28;;;;;;;1.07;1.07;;;8.20;99.90;;;;;;4974016;28;20231;-64
2023/11/01 01:48:54;;;;;;;0.47;0.47;;;8.20;99.90;;;;;;4973746;28;20288;-63
2023/11/01 01:51:19;;;;;;;0.30;0.30;;;8.20;99.90;;;;;;4974179;28;20196;-64
2023/11/01 01:53:46;;;;;;;0.53;0.53;;;8.10;99.90;;;;;;4973864;28;20782;-64
2023/11/01 01:56:14;;;;;;;0.30;0.30;;;8.10;99.90;;;;;;4973677;28;20451;-64
2023/11/01 01:58:42;;;;;;;0.55;0.55;;;8.20;99.90;;;;;;4973687;28;20561;-64
2023/11/01 02:01:08;;;;;;;0.30;0.30;;;8.00;99.90;;;;;;4973789;28;20172;-64
2023/11/01 02:03:35;;;;;;;1.27;1.08;;;7.90;99.90;;;;;;4973422;28;20266;-64
2023/11/01 02:06:02;;;;;;;0.60;0.60;;;7.90;99.90;;;;;;4973632;28;20180;-63
2023/11/01 02:08:28;;;;;;;0.52;0.38;;;7.90;99.90;;;;;;4973460;28;20239;-64
2023/11/01 02:10:54;;;;;;;0.50;0.50;;;7.80;99.90;;;;;;4973585;28;20650;-64
2023/11/01 02:13:20;;;;;;;0.30;0.30;;;7.70;99.90;;;;;;4973665;28;20204;-64
2023/11/01 02:15:46;;;;;;;0.57;0.57;;;7.60;99.90;;;;;;4974188;28;20200;-64
2023/11/01 02:18:12;;;;;;;0.50;0.50;;;7.60;99.90;;;;;;4973298;28;20176;-64
2023/11/01 02:20:40;;;;;;;0.40;0.40;;;7.60;99.90;;;;;;4973678;28;20177;-64
2023/11/01 02:23:12;;;;;;;0.40;0.40;;;7.50;99.90;;;;;;4972189;28;20200;-63
2023/11/01 02:25:39;;;;;;;0.80;0.80;;;7.50;99.90;;;;;;4973234;28;20203;-64
2023/11/01 02:28:05;;;;;;;0.30;0.30;;;7.50;99.90;;;;;;4972356;28;20176;-64
2023/11/01 02:30:31;;;;;;;0.35;0.35;;;7.30;99.90;;;;;;4973188;28;20173;-64
2023/11/01 02:32:57;;;;;;;0.40;0.40;;;7.20;99.90;;;;;;4973116;28;20690;-64
2023/11/01 02:35:23;;;;;;;0.40;0.40;;;7.10;99.90;;;;;;4973081;28;20188;-64
2023/11/01 02:37:48;;;;;;;0.50;0.40;;;7.00;99.90;;;;;;4972880;28;20650;-63
2023/11/01 02:40:15;;;;;;;0.40;0.40;;;7.10;99.90;;;;;;4973073;28;20180;-64
2023/11/01 02:42:47;;;;;;;0.80;0.77;;;7.10;99.90;;;;;;4973031;28;20203;-64
2023/11/01 02:45:13;;;;;;;0.30;0.30;;;7.00;99.90;;;;;;4972622;28;20561;-64
2023/11/01 02:47:40;;;;;;;0.40;0.40;;;6.90;99.90;;;;;;4972904;28;20518;-63
2023/11/01 02:50:10;;;;;;;0.40;0.40;;;6.80;99.90;;;;;;4973026;28;20261;-61
2023/11/01 02:52:39;;;;;;;0.30;0.30;;;7.20;99.90;;;;;;4976755;28;20512;-63
2023/11/01 02:55:14;;;;;;;0.50;0.50;;;8.00;99.90;;;;;;4992188;28;20180;-63
2023/11/01 02:57:40;;;;;;;0.73;0.50;;;8.40;99.90;;;;;;4992060;28;20639;-63
2023/11/01 03:00:07;;;;;;;0.45;0.45;;;8.30;99.90;;;;;;4992153;28;20206;-63
2023/11/01 03:02:34;;;;;;;0.70;0.70;;;8.10;99.90;;;;;;4972399;28;20215;-62
2023/11/01 03:05:00;;;;;;;0.50;0.50;;;7.90;99.90;;;;;;4988419;28;20186;-62
2023/11/01 03:07:26;;;;;;;0.73;0.50;;;7.70;99.90;;;;;;4972697;28;20616;-62
2023/11/01 03:09:53;;;;;;;0.40;0.40;;;7.60;99.90;;;;;;4978385;28;20261;-62
2023/11/01 03:12:19;;;;;;;0.40;0.40;;;7.40;99.90;;;;;;4990824;28;20953;-61
2023/11/01 03:14:44;;;;;;;0.70;0.70;;;7.20;99.90;;;;;;4987973;28;20195;-63
2023/11/01 03:17:10;;;;;;;0.80;0.60;;;7.00;99.90;;;;;;4972477;28;20220;-62
2023/11/01 03:19:40;;;;;;;0.50;0.50;;;6.90;99.90;;;;;;4969468;28;20222;-63
2023/11/01 03:22:06;;;;;;;0.40;0.40;;;6.80;99.90;;;;;;4970505;28;20653;-61
2023/11/01 03:24:32;;;;;;;0.30;0.30;;;6.80;99.90;;;;;;4972662;28;20234;-61
2023/11/01 03:26:58;;;;;;;0.40;0.40;;;6.80;99.90;;;;;;4972465;28;20175;-61
2023/11/01 03:29:26;;;;;;;0.40;0.40;;;6.70;99.90;;;;;;4972378;28;20201;-61
2023/11/01 03:31:52;;;;;;;0.60;0.60;;;6.60;99.90;;;;;;4972545;28;20421;-61
2023/11/01 03:34:18;;;;;;;0.40;0.40;;;6.50;99.90;;;;;;4972603;28;20183;-61
2023/11/01 03:36:44;;;;;;;0.40;0.40;;;6.50;99.90;;;;;;4972885;28;20454;-61
2023/11/01 03:39:10;;;;;;;0.40;0.40;;;6.50;99.90;;;;;;4976102;28;20627;-62
2023/11/01 03:41:40;;;;;;;0.40;0.40;;;6.50;99.90;;;;;;4976246;28;20493;-61
2023/11/01 03:44:06;;;;;;;0.30;0.30;;;6.50;99.90;;;;;;4976381;28;20167;-60
2023/11/01 03:46:31;;;;;;;0.40;0.40;;;6.40;99.90;;;;;;4976157;28;20649;-60
2023/11/01 03:48:57;;;;;;;0.40;0.40;;;6.50;99.90;;;;;;4976017;28;20194;-60
2023/11/01 03:51:26;;;;;;;0.50;0.40;;;6.40;99.90;;;;;;4976186;28;20183;-61
2023/11/01 03:53:52;;;;;;;0.30;0.30;;;6.40;99.90;;;;;;4974568;28;20233;-61
2023/11/01 03:56:18;;;;;;;0.30;0.30;;;6.40;99.90;;;;;;4975980;28;20624;-62
2023/11/01 03:58:44;;;;;;;0.45;0.45;;;6.40;99.90;;;;;;4975733;28;20182;-61
2023/11/01 04:01:10;;;;;;;3.20;1.53;;;6.40;99.90;;;;;;4976003;28;20173;-61
2023/11/01 04:03:35;;;;;;;0.30;0.30;;;6.40;99.90;;;;;;4975732;28;20451;-62
2023/11/01 04:06:01;;;;;;;0.30;0.30;;;6.40;99.90;;;;;;4975761;28;20180;-61
2023/11/01 04:08:27;;;;;;;0.30;0.30;;;6.40;99.90;;;;;;4975843;28;20241;-61
2023/11/01 04:10:53;;;;;;;0.40;0.40;;;6.30;99.90;;;;;;4975915;28;20174;-61
2023/11/01 04:13:19;;;;;;;1.63;0.50;;;6.30;99.90;;;;;;4975776;28;20189;-61
2023/11/01 04:15:44;;;;;;;0.50;0.50;;;6.30;99.90;;;;;;4975711;28;20202;-62
2023/11/01 04:18:10;;;;;;;0.40;0.40;;;6.20;99.90;;;;;;4975528;28;20185;-62
2023/11/01 04:20:36;;;;;;;3.03;0.93;;;6.20;99.90;;;;;;4975564;28;20176;-60
2023/11/01 04:23:02;;;;;;;0.52;0.52;;;6.10;99.90;;;;;;4973861;28;20193;-61
2023/11/01 04:25:28;;;;;;;0.40;0.40;;;6.10;99.90;;;;;;4983473;28;20640;-62
2023/11/01 04:27:55;;;;;;;0.60;0.60;;;6.20;99.90;;;;;;4987999;28;20174;-62
2023/11/01 04:30:21;;;;;;;0.30;0.30;;;6.10;99.90;;;;;;4975421;28;20409;-61
2023/11/01 04:32:46;;;;;;;0.40;0.40;;;6.10;99.90;;;;;;4986780;28;20672;-61
2023/11/01 04:35:12;;;;;;;0.30;0.30;;;6.00;99.90;;;;;;4993458;28;20656;-61
2023/11/01 04:37:39;;;;;;;0.40;0.40;;;6.10;99.90;;;;;;4994748;28;20262;-61
2023/11/01 04:40:10;;;;;;;0.40;0.40;;;6.10;99.90;;;;;;4992887;28;20503;-62
2023/11/01 04:42:45;;;;;;;0.65;0.65;;;6.10;99.90;;;;;;4973696;28;20535;-62
2023/11/01 04:45:12;;;;;;;0.40;0.40;;;6.10;99.90;;;;;;4975182;28;20670;-61
2023/11/01 04:47:46;;;;;;;0.35;0.35;;;6.00;99.90;;;;;;4974966;28;20600;-62
2023/11/01 04:50:13;;;;;;;0.30;0.30;;;6.00;99.90;;;;;;4974276;28;20192;-62
2023/11/01 04:52:41;;;;;;;0.30;0.30;;;6.00;99.90;;;;;;4974960;28;20277;-62
2023/11/01 04:55:08;;;;;;;0.30;0.30;;;5.90;99.90;;;;;;4974975;28;20182;-61
2023/11/01 04:57:34;;;;;;;0.38;0.38;;;5.90;99.90;;;;;;4974730;28;20585;-61
2023/11/01 05:00:00;;;;;;;0.40;0.40;;;5.90;99.90;;;;;;4975445;28;20252;-61
2023/11/01 05:02:26;;;;;;;34.28;1.90;;;6.00;99.90;;;;;;4974762;28;20212;-63
2023/11/01 05:04:52;;;;;;;0.63;0.60;;;6.00;99.90;;;;;;4974833;28;20188;-62
2023/11/01 05:07:19;;;;;;;0.30;0.30;;;5.90;99.90;;;;;;4974739;28;20198;-62
2023/11/01 05:09:45;;;;;;;0.30;0.30;;;5.90;99.90;;;;;;4974537;28;20426;-62
2023/11/01 05:12:11;;;;;;;0.83;0.70;;;5.80;99.90;;;;;;4974640;28;20208;-63
2023/11/01 05:14:36;;;;;;;0.90;0.60;;;5.80;99.90;;;;;;4974665;28;20177;-61
2023/11/01 05:17:05;;;;;;;0.37;0.37;;;5.80;99.90;;;;;;4974449;28;20206;-62
2023/11/01 05:19:30;;;;;;;0.40;0.40;;;5.90;99.90;;;;;;4965056;28;20718;-62
2023/11/01 05:21:56;;;;;;;0.40;0.40;;;6.00;99.90;;;;;;4965271;28;20185;-61
2023/11/01 05:24:22;;;;;;;0.30;0.30;;;6.00;99.90;;;;;;4968705;28;20228;-62
2023/11/01 05:26:47;;;;;;;0.37;0.37;;;5.90;99.90;;;;;;4966011;28;20267;-61
2023/11/01 05:29:15;;;;;;;0.30;0.30;;;5.80;99.90;;;;;;4965534;28;20273;-63
2023/11/01 05:31:41;;;;;;;0.50;0.50;;;5.70;99.90;;;;;;4974386;28;20181;-63
2023/11/01 05:34:07;;;;;;;0.30;0.30;;;5.80;99.90;;;;;;4966641;28;20232;-62
2023/11/01 05:36:35;;;;;;;0.52;0.52;;;5.70;99.90;;;;;;4966926;28;20203;-62
2023/11/01 05:39:05;;;;;;;0.80;0.80;;;5.70;99.90;;;;;;4968853;28;20190;-62
2023/11/01 05:41:31;;;;;;;0.30;0.30;;;5.70;99.90;;;;;;4974307;28;20201;-62
2023/11/01 05:43:57;;;;;;;1.48;1.40;;;5.70;99.90;;;;;;4974008;28;20651;-62
2023/11/01 05:46:23;;;;;;;1.07;1.00;;;5.80;99.90;;;;;;4974098;28;20254;-62
2023/11/01 05:48:48;;;;;;;1.00;1.00;;;5.80;99.90;;;;;;4962117;28;20182;-62
2023/11/01 05:51:14;;;;;;;0.43;0.43;;;5.70;99.90;;;;;;4954728;29;20175;-62
2023/11/01 05:53:40;;;;;;;0.40;0.40;;;5.70;99.90;;;;;;4954575;28;20190;-62
2023/11/01 05:56:07;;;;;;;0.30;0.30;;;5.80;99.90;;;;;;4954554;29;20197;-62
2023/11/01 05:58:33;;;;;;;0.50;0.50;;;5.70;99.90;;;;;;4969430;28;20180;-62
2023/11/01 06:01:00;;;;;;;0.30;0.30;;;5.70;99.90;;;;;;4973850;28;20178;-62
2023/11/01 06:03:26;;;;;;;0.30;0.30;;;5.80;99.90;;;;;;4973610;28;20201;-62
2023/11/01 06:05:52;;;;;;;0.40;0.40;;;5.70;99.90;;;;;;4973752;28;20665;-62
2023/11/01 06:08:18;;;;;;;2.15;1.50;;;5.80;99.90;;;;;;4973910;28;20478;-62
2023/11/01 06:10:44;;;;;;;0.50;0.50;;;5.70;99.90;;;;;;4973851;28;20665;-62
2023/11/01 06:13:10;;;;;;;0.40;0.40;;;5.80;99.90;;;;;;4973489;28;20213;-62
2023/11/01 06:15:36;;;;;;;0.40;0.40;;;5.90;99.90;;;;;;4973534;28;20664;-62
2023/11/01 06:18:06;;;;;;;0.30;0.30;;;5.80;99.90;;;;;;4973414;28;20912;-63
2023/11/01 06:20:35;;;;;;;0.40;0.40;;;5.70;99.90;;;;;;4973488;28;20656;-62
2023/11/01 06:23:04;;;;;;;0.45;0.45;;;5.60;99.90;;;;;;4973830;28;20294;-62
2023/11/01 06:25:29;;;;;;;0.40;0.40;;;5.60;99.90;;;;;;4973253;28;20192;-62
2023/11/01 06:27:55;;;;;;;0.40;0.40;;;5.70;99.90;;;;;;4973101;28;20177;-63
2023/11/01 06:30:21;;;;;;;0.40;0.40;;;5.80;99.90;;;;;;4974057;28;20179;-62
2023/11/01 06:32:46;;;;;;;0.40;0.40;;;5.90;99.90;;;;;;4972963;28;20241;-63
2023/11/01 06:35:12;;;;;;;0.60;0.60;;;6.00;99.90;;;;;;4972795;28;20181;-62
2023/11/01 06:37:38;;;;;;;0.30;0.30;;;6.10;99.90;;;;;;4973104;28;20194;-62
2023/11/01 06:40:05;;;;;;;0.50;0.50;;;6.10;99.90;;;;;;4972936;28;20177;-63
2023/11/01 06:42:31;;;;;;;0.40;0.40;;;6.20;99.90;;;;;;4973260;28;20199;-62
2023/11/01 06:44:57;;;;;;;0.40;0.40;;;6.20;99.90;;;;;;4973147;28;20177;-63
2023/11/01 06:47:23;;;;;;;1.00;0.82;;;6.30;99.90;;;;;;4972981;28;20217;-64
2023/11/01 06:49:49;;;;;;;1.48;1.38;;;6.30;99.90;;;;;;4972821;28;20189;-64
2023/11/01 06:52:15;;;;;;;2.13;1.93;;;6.30;99.90;;;;;;4973044;28;20632;-64
2023/11/01 06:54:43;;;;;;;1.80;1.70;;;6.40;99.90;;;;;;4972910;28;20480;-65
2023/11/01 06:57:11;;;;;;;3.97;3.38;;;6.40;99.90;;;;;;4972809;28;20298;-64
2023/11/01 06:59:38;;;;;;;1.75;1.20;;;6.50;99.90;;;;;;4972779;28;20547;-64
2023/11/01 07:02:06;;;;;;;3.33;3.03;;;6.60;99.90;;;;;;4972780;28;20244;-64
2023/11/01 07:04:32;;;;;;;1.55;1.48;;;6.80;99.90;;;;;;4972912;28;20172;-64
2023/11/01 07:06:57;;;;;;;2.83;1.40;;;7.00;99.90;;;;;;4972738;28;20233;-64
2023/11/01 07:09:23;;;;;;;3.93;1.33;;;7.00;99.90;;;;;;4972633;28;20416;-64
2023/11/01 07:11:49;;;;;;;0.93;0.93;;;7.10;99.90;;;;;;4972834;28;20653;-64
2023/11/01 07:14:14;;;;;;;0.50;0.50;;;7.30;99.90;;;;;;4978610;28;20641;-64
2023/11/01 07:16:42;;;;;;;0.60;0.60;;;7.40;99.90;;;;;;4978917;28;20206;-64
2023/11/01 07:19:08;;;;;;;1.05;0.88;;;7.50;99.90;;;;;;4979120;28;20172;-65
2023/11/01 07:21:33;;;;;;;1.60;1.13;;;7.70;99.90;;;;;;4979029;28;20719;-65
2023/11/01 07:23:59;;;;;;;0.70;0.70;;;7.70;99.90;;;;;;4978927;28;20457;-65
2023/11/01 07:26:25;;;;;;;2.93;1.07;;;7.80;99.90;;;;;;4979135;28;20173;-65
2023/11/01 07:28:51;;;;;;;0.53;0.53;;;8.00;99.90;;;;;;4979120;28;20408;-65
2023/11/01 07:31:17;;;;;;;1.08;1.08;;;8.30;99.90;;;;;;4978737;28;20171;-65
2023/11/01 07:33:43;;;;;;;1.43;1.43;;;8.90;99.90;;;;;;4981847;28;20545;-65
2023/11/01 07:36:10;;;;;;;1.17;1.17;;;9.70;99.90;;;;;;4978959;28;20451;-65
2023/11/01 07:38:36;;;;;;;1.23;0.80;;;10.50;99.90;;;;;;4978564;28;20400;-65
2023/11/01 07:41:02;;;;;;;1.67;1.57;;;11.30;99.90;;;;;;4979061;28;20404;-63
2023/11/01 07:43:28;;;;;;;1.13;1.07;;;12.00;99.90;;;;;;4978998;28;20975;-63
2023/11/01 07:45:53;;;;;;;0.40;0.40;;;12.70;99.90;;;;;;4979232;28;20180;-63
2023/11/01 07:48:20;;;;;;;0.40;0.40;;;13.50;99.60;;;;;;4978739;28;20169;-63
2023/11/01 07:50:45;;;;;;;0.60;0.60;;;14.60;94.10;;;;;;4978866;28;20175;-63
2023/11/01 07:53:11;;;;;;;1.30;0.53;;;16.10;91.70;;;;;;4978738;28;20430;-63
2023/11/01 07:55:37;;;;;;;1.27;0.93;;;17.50;89.80;;;;;;4978696;28;20603;-64
2023/11/01 07:58:03;;;;;;;0.70;0.70;;;18.70;82.30;;;;;;4978502;28;20411;-64
2023/11/01 08:00:30;;;;;;;0.83;0.67;;;19.60;79.90;;;;;;4978723;28;20228;-64
2023/11/01 08:02:56;;;;;;;0.50;0.50;;;20.30;75.80;;;;;;4978486;28;20455;-64
2023/11/01 08:05:22;;;;;;;1.83;1.30;;;21.20;72.00;;;;;;4978724;28;20408;-63
2023/11/01 08:07:48;;;;;;;1.10;1.00;;;22.00;69.90;;;;;;4984313;28;20291;-63
2023/11/01 08:10:14;;;;;;;1.00;1.00;;;22.60;67.50;;;;;;4978943;28;20195;-63
2023/11/01 08:12:39;;;;;;;0.77;0.77;;;22.70;63.10;;;;;;4978414;28;20427;-63
2023/11/01 08:15:06;;;;;;;0.50;0.50;;;22.60;62.70;;;;;;4978815;28;20646;-64
2023/11/01 08:17:32;;;;;;;0.60;0.60;;;22.50;62.80;;;;;;4978377;28;20227;-63
2023/11/01 08:19:58;;;;;;;1.33;1.23;;;21.90;59.50;;;;;;4978424;28;20829;-63
2023/11/01 08:22:24;;;;;;;1.13;1.03;;;21.20;61.10;;;;;;4978373;28;20438;-63
2023/11/01 08:24:50;;;;;;;0.90;0.70;;;20.60;63.00;;;;;;4975976;28;20383;-63
2023/11/01 08:27:16;;;;;;;0.60;0.50;;;20.00;64.70;;;;;;4975328;28;20393;-63
2023/11/01 08:29:42;;;;;;;0.90;0.73;;;19.40;66.90;;;;;;4975314;28;20388;-63
2023/11/01 08:32:09;;;;;;;2.20;0.83;;;19.00;68.50;;;;;;4975411;28;20200;-63
2023/11/01 08:34:35;;;;;;;0.50;0.50;;;18.40;69.20;;;;;;4975260;28;20464;-63
2023/11/01 08:37:02;;;;;;;0.67;0.67;;;17.80;71.20;;;;;;4975089;28;20567;-63
2023/11/01 08:39:27;;;;;;;0.87;0.70;;;17.40;72.80;;;;;;4975077;28;20913;-63
2023/11/01 08:41:53;;;;;;;0.60;0.60;;;17.00;75.30;;;;;;4975565;28;20412;-63
2023/11/01 08:44:19;;;;;;;0.93;0.80;;;16.80;76.00;;;;;;4975329;28;20187;-63
2023/11/01 08:46:45;;;;;;;0.40;0.40;;;16.70;77.50;;;;;;4975092;28;20530;-63
2023/11/01 08:49:11;;;;;;;3.03;0.43;;;16.80;78.00;;;;;;4974963;28;20256;-63
2023/11/01 08:51:39;;;;;;;1.63;0.60;;;17.00;76.20;;;;;;4974636;28;20428;-66
2023/11/01 08:54:09;;;;;;;0.73;0.73;;;17.00;76.70;;;;;;4974711;28;20438;-64
2023/11/01 08:56:36;;;;;;;0.40;0.40;;;17.20;77.10;;;;;;4974821;28;20461;-64
2023/11/01 08:59:03;;;;;;;0.40;0.40;;;17.60;75.80;;;;;;4974953;28;20416;-65
2023/11/01 09:01:29;;;;;;;0.40;0.40;;;18.10;76.10;;;;;;4974865;28;20479;-64
2023/11/01 09:03:55;;;;;;;0.53;0.53;;;18.70;75.80;;;;;;4975065;28;20495;-65
2023/11/01 09:06:21;;;;;;;0.50;0.37;;;19.10;74.30;;;;;;4975044;28;20188;-65
2023/11/01 09:08:47;;;;;;;1.57;0.60;;;19.30;72.90;;;;;;4974772;28;20263;-65
2023/11/01 09:11:14;;;;;;;0.83;0.63;;;19.50;72.80;;;;;;4974932;28;20185;-65
2023/11/01 09:13:40;;;;;;;0.90;0.50;;;19.70;72.00;;;;;;4974794;28;20435;-65
2023/11/01 09:16:06;;;;;;;0.97;0.50;;;19.50;71.80;;;;;;4974624;28;20196;-64
2023/11/01 09:18:31;;;;;;;0.80;0.50;;;19.10;70.90;;;;;;4974283;28;20661;-64
2023/11/01 09:20:58;;;;;;;0.70;0.63;;;18.40;72.00;;;;;;4971639;28;20392;-63
2023/11/01 09:23:24;;;;;;;0.40;0.40;;;17.80;73.90;;;;;;4962196;28;20205;-65
2023/11/01 09:25:50;;;;;;;0.40;0.40;;;17.40;76.40;;;;;;4971562;28;20799;-65
2023/11/01 09:28:15;;;;;;;0.90;0.60;;;17.00;78.00;;;;;;4974210;28;20187;-65
2023/11/01 09:30:41;;;;;;;1.23;0.60;;;16.80;79.10;;;;;;4974495;28;20217;-66
2023/11/01 09:33:07;;;;;;;0.50;0.50;;;16.60;79.90;;;;;;4974186;28;20265;-65
2023/11/01 09:35:32;;;;;;;0.63;0.63;;;16.50;80.30;;;;;;4973976;28;20185;-65
2023/11/01 09:37:58;;;;;;;0.40;0.40;;;16.20;80.20;;;;;;4973913;28;20206;-65
2023/11/01 09:40:24;;;;;;;0.43;0.43;;;16.00;80.80;;;;;;4974179;28;20179;-65
2023/11/01 09:42:49;;;;;;;0.60;0.57;;;15.70;82.00;;;;;;4974403;28;20193;-65
2023/11/01 09:45:19;;;;;;;1.47;0.90;;;15.60;83.10;;;;;;4974046;28;20182;-65
2023/11/01 09:47:45;;;;;;;0.43;0.43;;;15.60;83.60;;;;;;4973731;28;20175;-65
2023/11/01 09:50:13;;;;;;;0.60;0.60;;;15.80;84.60;;;;;;4974272;28;20410;-65
2023/11/01 09:52:39;;;;;;;0.70;0.60;;;16.20;83.90;;;;;;4973872;28;20439;-65
2023/11/01 09:55:06;;;;;;;0.40;0.40;;;16.60;82.60;;;;;;4973999;28;20795;-65
2023/11/01 09:57:34;;;;;;;0.80;0.80;;;16.80;83.80;;;;;;4973684;28;20474;-65
2023/11/01 10:00:03;;;;;;;0.40;0.40;;;16.90;83.60;;;;;;4973583;28;20839;-65
2023/11/01 10:02:29;;;;;;;0.40;0.40;;;16.90;82.90;;;;;;4973747;28;20465;-63
2023/11/01 10:04:55;;;;;;;0.97;0.83;;;16.80;82.60;;;;;;4973908;28;20918;-65
2023/11/01 10:07:20;;;;;;;1.13;0.73;;;16.60;83.70;;;;;;4973608;28;20412;-65
2023/11/01 10:09:47;;;;;;;0.60;0.60;;;16.50;84.20;;;;;;4973487;28;20978;-66
2023/11/01 10:12:13;;;;;;;0.90;0.70;;;16.30;84.40;;;;;;4973584;28;20211;-64
2023/11/01 10:14:40;;;;;;;0.60;0.50;;;16.30;85.00;;;;;;4973499;28;20417;-64
2023/11/01 10:17:05;;;;;;;0.70;0.70;;;16.30;86.80;;;;;;4973252;28;20469;-63
2023/11/01 10:19:31;;;;;;;1.27;0.97;;;16.50;85.70;;;;;;4973362;28;20461;-64
2023/11/01 10:21:57;;;;;;;0.90;0.53;;;16.90;82.80;;;;;;4973444;28;20189;-64
2023/11/01 10:24:25;;;;;;;0.40;0.40;;;17.00;80.50;;;;;;4973163;28;20551;-64
2023/11/01 10:26:57;;;;;;;0.83;0.83;;;17.10;73.70;;;;;;4978375;28;20475;-64
2023/11/01 10:29:24;;;;;;;2.00;0.50;;;17.30;73.20;;;;;;4973087;28;20809;-64
2023/11/01 10:31:58;;;;;;;0.57;0.57;;;17.50;75.00;;;;;;4973419;28;20423;-64
2023/11/01 10:34:28;;;;;;;0.43;0.43;;;17.50;75.10;;;;;;4973188;28;20819;-64
2023/11/01 10:36:54;;;;;;;0.83;0.60;;;17.30;81.60;;;;;;4972949;28;20454;-64
2023/11/01 10:39:21;;;;;;;0.50;0.50;;;16.70;84.70;;;;;;4972962;28;20934;-64
2023/11/01 10:41:52;;;;;;;0.50;0.50;;;16.20;86.60;;;;;;4972864;28;20414;-64
2023/11/01 10:44:20;;;;;;;0.40;0.40;;;15.70;89.90;;;;;;4973057;28;20492;-64
2023/11/01 10:46:47;;;;;;;0.40;0.40;;;15.20;91.20;;;;;;4972815;28;20911;-64
2023/11/01 10:49:14;;;;;;;0.50;0.40;;;14.90;92.00;;;;;;4972189;28;20467;-64
2023/11/01 10:51:41;;;;;;;0.50;0.50;;;14.70;92.50;;;;;;4972989;28;20418;-64
2023/11/01 10:54:08;;;;;;;0.47;0.47;;;14.50;93.60;;;;;;4973015;28;20431;-64
2023/11/01 10:56:34;;;;;;;0.40;0.40;;;14.30;94.10;;;;;;4972918;28;20973;-64
2023/11/01 10:59:20;;;;;;;1.03;0.60;;;14.50;94.20;;;;;;4973042;28;20881;-64
2023/11/01 11:02:08;;;;;;;0.40;0.40;;;14.70;94.00;;;;;;4972928;28;20805;-64
2023/11/01 11:04:44;;;;;;;0.70;0.50;;;14.90;94.50;;;;;;4968891;28;21039;-64
2023/11/01 11:07:40;;;;;;;0.67;0.67;;;14.90;94.80;;;;;;4972865;28;20404;-64
2023/11/01 11:10:24;;;;;;;1.00;0.53;;;14.90;95.00;;;;;;4972759;28;20515;-64
2023/11/01 11:13:08;;;;;;;0.50;0.40;;;14.90;95.30;;;;;;4972808;28;20443;-64
2023/11/01 11:15:56;;;;;;;0.40;0.40;;;15.10;96.60;;;;;;4972786;28;20498;-64
2023/11/01 11:18:24;;;;;;;0.40;0.40;;;15.30;96.10;;;;;;4971951;28;20419;-64
2023/11/01 11:20:54;;;;;;;0.40;0.40;;;15.70;92.40;;;;;;4972465;28;20421;-64
2023/11/01 11:23:30;;;;;;;0.30;0.30;;;16.20;90.40;;;;;;4972658;28;20460;-64
2023/11/01 11:25:57;;;;;;;1.23;0.70;;;16.60;90.40;;;;;;4972808;28;20411;-64
2023/11/01 11:28:26;;;;;;;1.27;0.93;;;16.60;92.50;;;;;;4972270;28;20416;-64
2023/11/01 11:31:07;;;;;;;0.67;0.67;;;16.30;90.90;;;;;;4972658;28;20405;-64
2023/11/01 11:33:37;;;;;;;0.53;0.53;;;15.90;93.20;;;;;;4972681;28;21045;-65
2023/11/01 11:36:12;;;;;;;0.77;0.50;;;15.60;93.90;;;;;;4972270;28;20981;-64
2023/11/01 11:38:46;;;;;;;0.80;0.47;;;15.50;91.80;;;;;;4981412;28;20457;-64
2023/11/01 11:41:27;;;;;;;0.90;0.53;;;15.30;93.80;;;;;;4992869;28;20399;-65
2023/11/01 11:44:03;;;;;;;1.27;0.40;;;15.10;94.60;;;;;;4980179;28;20475;-64
2023/11/01 11:46:34;;;;;;;3.03;0.40;;;15.10;93.20;;;;;;4987227;28;20502;-64
2023/11/01 11:49:01;;;;;;;0.40;0.40;;;15.00;95.10;;;;;;4991637;28;20450;-65
2023/11/01 11:51:29;;;;;;;0.40;0.40;;;14.90;95.80;;;;;;4991815;28;20419;-64
2023/11/01 11:53:55;;;;;;;0.50;0.50;;;15.00;94.70;;;;;;4991784;28;20525;-64
2023/11/01 11:56:21;;;;;;;0.40;0.40;;;15.10;93.80;;;;;;4991670;28;21020;-64
2023/11/01 11:58:47;;;;;;;0.50;0.50;;;14.90;94.50;;;;;;4992290;28;20411;-64
2023/11/01 12:01:26;;;;;;;0.40;0.40;;;14.90;95.10;;;;;;4995457;28;20419;-64
2023/11/01 12:03:56;;;;;;;0.50;0.40;;;14.80;94.40;;;;;;4995510;28;20453;-64
2023/11/01 12:06:24;;;;;;;0.57;0.57;;;14.80;93.00;;;;;;4995534;28;20885;-64
2023/11/01 12:08:50;;;;;;;0.30;0.30;;;14.80;93.30;;;;;;4993877;28;20433;-63
2023/11/01 12:11:17;;;;;;;0.63;0.63;;;14.80;94.30;;;;;;4995450;28;20419;-64
2023/11/01 12:13:44;;;;;;;1.57;0.50;;;14.90;93.20;;;;;;4995311;28;20446;-63
2023/11/01 12:16:24;;;;;;;0.40;0.40;;;14.90;94.30;;;;;;4995223;28;20483;-64
2023/11/01 12:19:09;;;;;;;0.63;0.60;;;14.70;92.70;;;;;;4995153;28;20411;-64
2023/11/01 12:21:39;;;;;;;0.40;0.40;;;14.70;91.90;;;;;;4995316;28;20907;-66
2023/11/01 12:24:05;;;;;;;0.63;0.40;;;14.70;92.20;;;;;;4994934;28;20480;-64
2023/11/01 12:26:31;;;;;;;1.17;0.50;;;14.60;90.20;;;;;;4995036;28;20453;-64
2023/11/01 12:29:02;;;;;;;0.37;0.37;;;14.50;92.50;;;;;;4994952;28;20808;-64
2023/11/01 12:31:27;;;;;;;0.40;0.40;;;14.40;92.60;;;;;;4993820;28;20261;-64
2023/11/01 12:34:11;;;;;;;0.83;0.50;;;14.20;91.70;;;;;;4994891;28;20447;-63
2023/11/01 12:36:40;;;;;;;0.40;0.40;;;14.00;94.10;;;;;;4994707;28;20472;-64
2023/11/01 12:39:09;;;;;;;0.50;0.50;;;13.80;94.60;;;;;;4994905;28;20856;-64
2023/11/01 12:41:35;;;;;;;0.37;0.37;;;13.70;95.20;;;;;;4995559;28;20462;-63
2023/11/01 12:44:03;;;;;;;0.50;0.50;;;13.60;95.00;;;;;;4995644;28;20431;-64
2023/11/01 12:46:29;;;;;;;0.50;0.50;;;13.50;91.00;;;;;;4995208;28;20883;-63
2023/11/01 12:48:55;;;;;;;0.43;0.43;;;13.40;94.30;;;;;;4994777;28;20418;-63
2023/11/01 12:51:21;;;;;;;0.83;0.50;;;13.20;94.10;;;;;;4996200;28;20451;-64
2023/11/01 12:53:47;;;;;;;0.40;0.40;;;13.20;93.50;;;;;;4995337;28;20970;-63